Time;durP1;ratioP1;P1;durP2;ratioP2;P2;SDS_P1;SDS_P2;PMS_P1;PMS_P2;Temp;Humidity;BMP_temperature;BMP_pressure;BME280_temperature;BME280_humidity;BME280_pressure;Samples;Min_cycle;Max_cycle;Signal;HPM_P1;HPM_P2
2022/09/30 00:01:53;;;;;;;9.23;7.47;;;;;;;7.82;100.00;97256.94;5106275;28;20533;-66
2022/09/30 00:04:21;;;;;;;11.20;8.57;;;;;;;7.96;100.00;97254.19;5103185;28;20293;-66
2022/09/30 00:06:49;;;;;;;9.90;8.17;;;;;;;7.90;100.00;97255.44;5102189;28;20677;-66
2022/09/30 00:09:20;;;;;;;8.37;7.23;;;;;;;7.80;100.00;97264.13;5102531;28;20266;-67
2022/09/30 00:11:48;;;;;;;10.47;7.60;;;;;;;7.69;100.00;97261.41;5104162;28;20260;-66
2022/09/30 00:14:25;;;;;;;8.43;7.53;;;;;;;7.65;100.00;97262.59;5102415;28;20223;-66
2022/09/30 00:16:54;;;;;;;9.50;7.73;;;;;;;7.65;100.00;97262.59;5102364;28;20273;-66
2022/09/30 00:19:21;;;;;;;10.87;8.23;;;;;;;7.70;100.00;97263.94;5101954;28;20223;-66
2022/09/30 00:21:47;;;;;;;8.60;7.70;;;;;;;7.79;100.00;97259.81;5101857;28;20244;-66
2022/09/30 00:24:16;;;;;;;11.53;8.20;;;;;;;7.85;100.00;97262.00;5101935;28;20266;-66
2022/09/30 00:26:46;;;;;;;9.30;7.97;;;;;;;7.90;100.00;97260.72;5102032;28;20266;-66
2022/09/30 00:29:14;;;;;;;12.20;8.50;;;;;;;8.00;100.00;97258.25;5101843;28;20237;-66
2022/09/30 00:31:41;;;;;;;10.33;8.57;;;;;;;8.11;100.00;97271.47;5114583;28;20231;-66
2022/09/30 00:34:10;;;;;;;12.17;8.63;;;;;;;8.19;100.00;97269.13;5116841;28;20258;-66
2022/09/30 00:36:44;;;;;;;9.37;7.67;;;;;;;8.22;100.00;97268.94;5116709;28;20227;-66
2022/09/30 00:39:13;;;;;;;10.20;9.10;;;;;;;8.25;100.00;97271.31;5115822;28;20260;-66
2022/09/30 00:41:40;;;;;;;10.50;8.60;;;;;;;8.25;100.00;97261.66;5115733;28;20280;-66
2022/09/30 00:44:44;;;;;;;12.13;8.53;;;;;;;8.28;100.00;97260.59;5116600;28;20263;-66
2022/09/30 00:47:43;;;;;;;8.90;7.97;;;;;;;8.31;100.00;97265.59;5112497;28;20249;-66
2022/09/30 00:50:24;;;;;;;9.27;7.33;;;;;;;8.33;100.00;97266.34;5101766;28;20228;-66
2022/09/30 00:53:02;;;;;;;9.27;7.30;;;;;;;8.32;100.00;97268.13;5101506;28;20310;-66
2022/09/30 00:55:51;;;;;;;11.13;7.40;;;;;;;8.27;100.00;97274.72;5115954;28;20646;-66
2022/09/30 00:58:26;;;;;;;9.50;7.10;;;;;;;8.27;100.00;97274.72;5116307;28;20252;-66
2022/09/30 01:00:53;;;;;;;8.47;6.83;;;;;;;8.24;100.00;97274.91;5114697;28;20253;-66
2022/09/30 01:03:22;;;;;;;9.30;6.47;;;;;;;8.24;100.00;97274.91;5115372;28;20266;-66
2022/09/30 01:05:52;;;;;;;9.40;7.00;;;;;;;8.29;100.00;97288.59;5113511;28;20263;-66
2022/09/30 01:08:23;;;;;;;10.90;7.23;;;;;;;8.28;100.00;97289.53;5116375;28;20278;-66
2022/09/30 01:10:53;;;;;;;7.10;6.30;;;;;;;8.30;100.00;97287.63;5113693;28;20225;-66
2022/09/30 01:13:23;;;;;;;8.03;7.03;;;;;;;8.30;100.00;97288.47;5099177;28;20229;-66
2022/09/30 01:16:06;;;;;;;8.17;7.03;;;;;;;8.30;100.00;97285.00;5108493;28;20505;-66
2022/09/30 01:18:48;;;;;;;9.13;7.10;;;;;;;8.30;100.00;97287.63;5101946;28;20281;-66
2022/09/30 01:21:38;;;;;;;7.20;6.37;;;;;;;8.31;100.00;97289.31;5100712;28;20270;-66
2022/09/30 01:24:37;;;;;;;7.60;6.80;;;;;;;8.30;100.00;97283.22;5100747;28;20529;-66
2022/09/30 01:27:32;;;;;;;6.63;5.93;;;;;;;8.29;100.00;97285.94;5079655;28;20279;-66
2022/09/30 01:30:18;;;;;;;7.30;6.33;;;;;;;8.25;100.00;97282.72;5100515;28;20232;-66
2022/09/30 01:33:12;;;;;;;9.40;6.43;;;;;;;8.22;100.00;97290.00;5113771;28;20239;-66
2022/09/30 01:36:03;;;;;;;7.57;6.47;;;;;;;8.17;100.00;97289.44;5115591;28;20227;-66
2022/09/30 01:38:39;;;;;;;6.70;5.77;;;;;;;8.17;100.00;97292.94;5112468;28;20243;-67
2022/09/30 01:41:22;;;;;;;7.53;6.27;;;;;;;8.15;100.00;97286.09;5114842;28;20313;-66
2022/09/30 01:43:58;;;;;;;7.43;6.50;;;;;;;8.13;100.00;97287.97;5115664;28;20264;-66
2022/09/30 01:46:42;;;;;;;8.17;6.50;;;;;;;8.15;100.00;97291.38;5112758;28;20626;-66
2022/09/30 01:49:24;;;;;;;6.70;6.00;;;;;;;8.14;100.00;97289.69;5115009;28;20223;-66
2022/09/30 01:52:01;;;;;;;6.30;5.33;;;;;;;8.10;100.00;97283.81;5115158;28;20579;-66
2022/09/30 01:54:40;;;;;;;7.27;5.60;;;;;;;8.02;100.00;97290.56;5108224;28;20227;-66
2022/09/30 01:57:18;;;;;;;7.97;5.83;;;;;;;7.95;100.00;97305.94;5109212;28;20548;-66
2022/09/30 01:59:51;;;;;;;6.67;5.40;;;;;;;7.88;100.00;97288.94;5100564;28;20567;-66
2022/09/30 02:02:21;;;;;;;7.93;5.57;;;;;;;7.93;100.00;97296.47;5101366;28;20262;-66
2022/09/30 02:04:56;;;;;;;8.23;5.83;;;;;;;7.94;100.00;97309.53;5099716;28;20261;-66
2022/09/30 02:07:30;;;;;;;7.27;5.30;;;;;;;7.88;100.00;97307.34;5099496;28;20332;-66
2022/09/30 02:10:06;;;;;;;8.27;6.10;;;;;;;7.91;100.00;97314.19;5102685;28;20392;-66
2022/09/30 02:12:46;;;;;;;8.13;5.63;;;;;;;7.94;100.00;97314.81;5100072;28;20262;-66
2022/09/30 02:15:18;;;;;;;8.13;6.57;;;;;;;7.98;100.00;97310.16;5100174;28;20238;-66
2022/09/30 02:17:50;;;;;;;7.83;5.80;;;;;;;8.03;100.00;97329.09;5102527;28;20294;-66
2022/09/30 02:20:28;;;;;;;7.60;5.73;;;;;;;8.09;100.00;97339.19;5099820;28;20309;-66
2022/09/30 02:23:06;;;;;;;6.57;5.80;;;;;;;8.14;100.00;97332.63;5099954;28;20229;-66
2022/09/30 02:25:39;;;;;;;6.57;5.87;;;;;;;8.17;100.00;97326.28;5102117;28;20264;-66
2022/09/30 02:28:16;;;;;;;6.57;5.47;;;;;;;8.20;100.00;97328.75;5099858;28;20220;-66
2022/09/30 02:30:49;;;;;;;6.13;5.53;;;;;;;8.21;100.00;97328.63;5105469;28;20628;-66
2022/09/30 02:33:25;;;;;;;7.63;5.80;;;;;;;8.20;100.00;97334.03;5099103;28;20224;-66
2022/09/30 02:35:59;;;;;;;7.93;5.43;;;;;;;8.14;100.00;97337.88;5099975;28;20223;-66
2022/09/30 02:38:35;;;;;;;6.97;5.57;;;;;;;8.15;100.00;97344.00;5099546;28;20249;-66
2022/09/30 02:41:07;;;;;;;6.23;4.90;;;;;;;8.12;100.00;97344.19;5099738;28;20223;-66
2022/09/30 02:43:41;;;;;;;7.30;5.63;;;;;;;8.09;100.00;97333.91;5101046;28;20260;-66
2022/09/30 02:46:24;;;;;;;6.93;5.50;;;;;;;8.00;100.00;97337.19;5101698;28;20231;-66
2022/09/30 02:49:02;;;;;;;6.67;5.90;;;;;;;7.83;100.00;97338.38;5103889;28;20254;-66
2022/09/30 02:51:45;;;;;;;7.17;5.50;;;;;;;7.71;100.00;97346.31;5117882;28;20299;-65
2022/09/30 02:54:19;;;;;;;6.23;5.30;;;;;;;7.62;100.00;97349.56;5109637;28;20231;-66
2022/09/30 02:56:56;;;;;;;7.40;5.77;;;;;;;7.52;100.00;97348.53;5114941;28;20261;-66
2022/09/30 02:59:28;;;;;;;8.70;6.27;;;;;;;7.44;100.00;97341.19;5102408;28;20623;-66
2022/09/30 03:01:55;;;;;;;7.10;5.60;;;;;;;7.35;100.00;97344.44;5103444;28;20284;-66
2022/09/30 03:04:25;;;;;;;7.40;5.83;;;;;;;7.25;100.00;97353.06;5103490;28;20241;-66
2022/09/30 03:06:54;;;;;;;6.87;5.60;;;;;;;7.17;100.00;97357.16;5105601;28;20328;-66
2022/09/30 03:09:25;;;;;;;7.47;5.77;;;;;;;7.09;100.00;97364.72;5103530;28;20222;-66
2022/09/30 03:12:00;;;;;;;7.87;5.63;;;;;;;7.04;100.00;97367.66;5103727;28;20527;-66
2022/09/30 03:14:44;;;;;;;8.43;6.47;;;;;;;7.10;100.00;97367.25;5103249;28;20293;-66
2022/09/30 03:17:30;;;;;;;7.00;6.30;;;;;;;7.13;100.00;97367.03;5114297;28;20263;-66
2022/09/30 03:20:24;;;;;;;8.23;6.83;;;;;;;7.11;100.00;97358.44;5103441;28;20305;-66
2022/09/30 03:23:10;;;;;;;8.27;6.67;;;;;;;7.10;100.00;97359.38;5116277;28;20272;-66
2022/09/30 03:25:47;;;;;;;7.63;6.03;;;;;;;7.09;100.00;97362.09;5116573;28;20590;-66
2022/09/30 03:28:25;;;;;;;10.20;6.37;;;;;;;7.04;100.00;97367.66;5117762;28;20221;-66
2022/09/30 03:31:04;;;;;;;8.43;6.53;;;;;;;6.98;100.00;97373.34;5117638;28;20228;-66
2022/09/30 03:33:43;;;;;;;8.10;6.20;;;;;;;6.96;100.00;97374.38;5118321;28;20497;-66
2022/09/30 03:36:20;;;;;;;9.33;6.70;;;;;;;6.93;100.00;97370.16;5117303;28;20234;-66
2022/09/30 03:38:55;;;;;;;7.10;6.20;;;;;;;6.90;100.00;97374.78;5117715;28;20245;-66
2022/09/30 03:41:34;;;;;;;7.80;6.03;;;;;;;6.89;100.00;97373.94;5118064;28;20251;-66
2022/09/30 03:44:15;;;;;;;8.83;6.80;;;;;;;6.82;100.00;97372.66;5117661;28;20309;-65
2022/09/30 03:46:46;;;;;;;7.67;6.63;;;;;;;6.82;100.00;97377.91;5104119;28;20267;-66
2022/09/30 03:49:19;;;;;;;10.77;7.27;;;;;;;6.79;100.00;97372.84;5117699;28;20257;-66
2022/09/30 03:51:48;;;;;;;8.90;7.33;;;;;;;6.81;100.00;97376.22;5116050;28;20222;-66
2022/09/30 03:54:16;;;;;;;8.80;6.73;;;;;;;6.77;100.00;97364.25;5109662;28;20223;-66
2022/09/30 03:56:52;;;;;;;9.23;6.57;;;;;;;6.71;100.00;97376.94;5114502;28;20226;-66
2022/09/30 03:59:24;;;;;;;7.80;6.70;;;;;;;6.63;100.00;97380.06;5102442;28;20246;-66
2022/09/30 04:01:56;;;;;;;8.47;6.27;;;;;;;6.62;100.00;97394.16;5104202;28;20222;-66
2022/09/30 04:04:25;;;;;;;9.90;7.60;;;;;;;6.65;100.00;97386.06;5106286;28;20222;-65
2022/09/30 04:06:52;;;;;;;8.57;7.17;;;;;;;6.69;100.00;97391.94;5117217;28;20274;-66
2022/09/30 04:09:20;;;;;;;7.23;6.23;;;;;;;6.73;100.00;97399.50;5117487;28;20570;-66
2022/09/30 04:11:46;;;;;;;9.93;6.73;;;;;;;6.74;100.00;97400.38;5114620;28;20260;-66
2022/09/30 04:14:13;;;;;;;6.87;6.00;;;;;;;6.70;100.00;97401.50;5102087;28;20272;-66
2022/09/30 04:16:42;;;;;;;7.00;6.30;;;;;;;6.65;100.00;97407.06;5100454;28;20227;-66
2022/09/30 04:19:09;;;;;;;6.33;5.37;;;;;;;6.60;100.00;97408.31;5102230;28;20273;-65
2022/09/30 04:21:41;;;;;;;8.67;5.67;;;;;;;6.52;100.00;97411.41;5104642;28;20268;-66
2022/09/30 04:24:10;;;;;;;7.80;6.00;;;;;;;6.49;100.00;97416.88;5103943;28;20226;-66
2022/09/30 04:26:38;;;;;;;7.37;6.10;;;;;;;6.44;100.00;97413.72;5117051;28;20225;-65
2022/09/30 04:29:08;;;;;;;8.63;5.93;;;;;;;6.38;100.00;97414.09;5116921;28;20663;-68
2022/09/30 04:31:35;;;;;;;8.50;6.10;;;;;;;6.31;100.00;97423.31;5114249;28;20259;-66
2022/09/30 04:34:01;;;;;;;8.47;6.53;;;;;;;6.26;100.00;97414.88;5116871;28;20264;-66
2022/09/30 04:36:31;;;;;;;6.93;6.13;;;;;;;6.17;100.00;97418.06;5116408;28;20307;-65
2022/09/30 04:39:02;;;;;;;7.43;6.57;;;;;;;6.07;100.00;97416.13;5116758;28;20255;-66
2022/09/30 04:41:33;;;;;;;7.73;6.43;;;;;;;6.05;100.00;97410.13;5114669;28;20535;-66
2022/09/30 04:44:05;;;;;;;8.20;6.97;;;;;;;6.04;100.00;97418.94;5114866;28;20286;-65
2022/09/30 04:46:37;;;;;;;8.77;6.30;;;;;;;6.06;100.00;97423.16;5116543;28;20265;-65
2022/09/30 04:49:09;;;;;;;6.37;5.77;;;;;;;6.05;100.00;97421.44;5114519;28;20222;-66
2022/09/30 04:51:42;;;;;;;6.80;5.67;;;;;;;5.98;100.00;97424.56;5101632;28;20268;-65
2022/09/30 04:54:15;;;;;;;6.23;5.63;;;;;;;5.92;100.00;97431.03;5110220;28;20222;-66
2022/09/30 04:56:48;;;;;;;6.57;5.20;;;;;;;5.90;100.00;97442.53;5102386;28;20229;-66
2022/09/30 04:59:16;;;;;;;6.40;5.43;;;;;;;5.86;100.00;97439.28;5103188;28;20269;-66
2022/09/30 05:01:43;;;;;;;6.43;5.03;;;;;;;5.81;100.00;97446.56;5101413;28;20276;-65
2022/09/30 05:04:17;;;;;;;6.80;5.67;;;;;;;5.76;100.00;97443.38;5101191;28;20226;-66
2022/09/30 05:06:51;;;;;;;5.40;4.90;;;;;;;5.69;100.00;97447.28;5102700;28;20288;-66
2022/09/30 05:09:20;;;;;;;5.57;4.80;;;;;;;5.69;100.00;97449.91;5098920;28;20276;-66
2022/09/30 05:11:49;;;;;;;5.80;5.20;;;;;;;5.70;100.00;97458.63;5101064;28;20226;-66
2022/09/30 05:14:17;;;;;;;7.53;5.73;;;;;;;5.71;100.00;97458.53;5101149;28;20257;-66
2022/09/30 05:16:44;;;;;;;7.63;6.10;;;;;;;5.79;100.00;97466.78;5103683;28;20562;-65
2022/09/30 05:19:10;;;;;;;8.43;6.60;;;;;;;5.82;100.00;97474.50;5100930;28;20363;-65
2022/09/30 05:21:41;;;;;;;8.67;6.50;;;;;;;5.86;100.00;97462.88;5100973;28;20262;-65
2022/09/30 05:24:08;;;;;;;7.33;6.57;;;;;;;5.84;100.00;97464.75;5100665;28;20309;-65
2022/09/30 05:26:34;;;;;;;6.93;6.10;;;;;;;5.83;100.00;97468.31;5103155;28;20575;-65
2022/09/30 05:29:01;;;;;;;6.90;5.70;;;;;;;5.79;100.00;97465.91;5100669;28;20258;-65
2022/09/30 05:31:29;;;;;;;6.20;5.50;;;;;;;5.79;100.00;97476.41;5100660;28;20258;-65
2022/09/30 05:33:55;;;;;;;6.83;5.87;;;;;;;5.88;100.00;97476.75;5100368;28;20227;-66
2022/09/30 05:36:22;;;;;;;7.60;6.70;;;;;;;5.97;100.00;97476.19;5101504;28;20268;-67
2022/09/30 05:38:57;;;;;;;8.70;7.03;;;;;;;6.05;100.00;97473.91;5100412;28;20350;-67
2022/09/30 05:41:26;;;;;;;8.70;7.00;;;;;;;6.08;100.00;97484.22;5100492;28;20313;-66
2022/09/30 05:43:59;;;;;;;8.97;6.80;;;;;;;6.07;100.00;97492.19;5100759;28;20280;-66
2022/09/30 05:46:30;;;;;;;11.67;6.97;;;;;;;6.04;100.00;97485.34;5113894;28;20648;-66
2022/09/30 05:48:57;;;;;;;16.17;8.57;;;;;;;6.04;100.00;97487.16;5115440;28;20225;-66
2022/09/30 05:51:27;;;;;;;15.07;9.47;;;;;;;6.02;100.00;97484.59;5115434;28;20305;-66
2022/09/30 05:53:53;;;;;;;12.63;9.43;;;;;;;5.98;100.00;97492.78;5108778;28;20256;-66
2022/09/30 05:56:20;;;;;;;13.20;9.10;;;;;;;5.94;100.00;97492.13;5114255;28;20660;-66
2022/09/30 05:58:49;;;;;;;11.17;8.73;;;;;;;6.00;100.00;97496.97;5099917;28;20246;-66
2022/09/30 06:01:19;;;;;;;13.30;8.77;;;;;;;6.05;100.00;97500.13;5098600;28;20233;-66
2022/09/30 06:03:47;;;;;;;14.13;9.23;;;;;;;6.10;100.00;97497.25;5101823;28;20709;-66
2022/09/30 06:06:15;;;;;;;11.73;8.60;;;;;;;6.08;100.00;97502.59;5100507;28;20288;-66
2022/09/30 06:08:42;;;;;;;10.53;7.83;;;;;;;6.11;100.00;97494.53;5100056;28;20226;-67
2022/09/30 06:11:13;;;;;;;10.90;8.17;;;;;;;6.13;100.00;97492.66;5100052;28;20546;-67
2022/09/30 06:13:48;;;;;;;13.37;9.80;;;;;;;6.24;100.00;97500.69;5102060;28;20228;-66
2022/09/30 06:16:15;;;;;;;12.47;10.17;;;;;;;6.31;100.00;97502.03;5100078;28;20701;-66
2022/09/30 06:18:48;;;;;;;11.53;9.03;;;;;;;6.41;100.00;97504.91;5099709;28;20712;-66
2022/09/30 06:21:18;;;;;;;11.13;8.87;;;;;;;6.45;100.00;97504.63;5101747;28;20530;-65
2022/09/30 06:23:48;;;;;;;11.87;7.90;;;;;;;6.45;100.00;97503.75;5111202;28;20226;-66
2022/09/30 06:26:21;;;;;;;10.63;8.47;;;;;;;6.45;100.00;97506.38;5113625;28;20571;-66
2022/09/30 06:28:49;;;;;;;9.30;7.53;;;;;;;6.54;100.00;97509.28;5111677;28;20303;-67
2022/09/30 06:31:16;;;;;;;7.80;6.73;;;;;;;6.66;100.00;97516.38;5112100;28;20309;-67
2022/09/30 06:33:45;;;;;;;8.23;7.00;;;;;;;6.83;100.00;97518.78;5112392;28;20295;-66
2022/09/30 06:36:12;;;;;;;8.60;7.60;;;;;;;6.97;100.00;97529.25;5113523;28;20226;-66
2022/09/30 06:38:44;;;;;;;9.27;7.83;;;;;;;7.13;100.00;97535.19;5113533;28;20250;-66
2022/09/30 06:41:15;;;;;;;8.30;6.83;;;;;;;7.21;100.00;97532.09;5111227;28;20688;-66
2022/09/30 06:43:44;;;;;;;9.13;7.77;;;;;;;7.32;100.00;97535.69;5098422;28;20299;-66
2022/09/30 06:46:11;;;;;;;12.57;8.10;;;;;;;7.43;100.00;97534.06;5098356;28;20299;-65
2022/09/30 06:48:40;;;;;;;11.07;8.07;;;;;;;7.55;100.00;97532.38;5098321;28;20255;-65
2022/09/30 06:51:08;;;;;;;12.17;8.27;;;;;;;7.67;100.00;97535.06;5100631;28;20230;-66
2022/09/30 06:53:38;;;;;;;14.90;10.13;;;;;;;7.81;100.00;97536.72;5101937;28;20219;-67
2022/09/30 06:56:17;;;;;;;15.03;10.43;;;;;;;7.96;100.00;97541.78;5105337;28;20309;-66
2022/09/30 06:58:46;;;;;;;18.33;12.33;;;;;;;8.14;100.00;97540.53;5110001;28;20559;-65
2022/09/30 07:01:14;;;;;;;16.63;11.70;;;;;;;8.26;100.00;97546.81;5099734;28;20235;-67
2022/09/30 07:03:43;;;;;;;19.80;13.07;;;;;;;8.41;100.00;97548.34;5098878;28;20257;-66
2022/09/30 07:06:16;;;;;;;19.33;13.40;;;;;;;8.51;100.00;97547.59;5099733;28;20219;-66
2022/09/30 07:08:43;;;;;;;17.20;12.87;;;;;;;8.58;100.00;97558.56;5061979;28;20228;-66
2022/09/30 07:11:13;;;;;;;16.70;12.27;;;;;;;8.60;100.00;97560.13;5059537;28;20268;-67
2022/09/30 07:13:44;;;;;;;14.10;11.10;;;;;;;8.61;100.00;97564.44;5059484;28;20250;-67
2022/09/30 07:16:18;;;;;;;15.53;11.83;;;;;;;8.61;100.00;97571.50;5059413;28;20233;-67
2022/09/30 07:18:48;;;;;;;15.07;11.23;;;;;;;8.65;100.00;97571.19;5059408;28;20221;-66
2022/09/30 07:21:18;;;;;;;15.83;11.23;;;;;;;8.75;100.00;97576.66;5057820;28;20289;-66
2022/09/30 07:23:48;;;;;;;15.80;12.23;;;;;;;8.81;100.00;97579.69;5058250;28;20598;-66
2022/09/30 07:26:19;;;;;;;15.20;11.73;;;;;;;8.94;100.00;97593.66;5058261;28;20311;-66
2022/09/30 07:28:49;;;;;;;16.40;12.03;;;;;;;8.94;100.00;97590.22;5061213;28;20233;-67
2022/09/30 07:31:21;;;;;;;16.87;12.43;;;;;;;9.02;100.00;97590.50;5072823;28;20654;-65
2022/09/30 07:33:50;;;;;;;16.13;11.93;;;;;;;9.09;100.00;97586.47;5076226;28;20562;-67
2022/09/30 07:36:25;;;;;;;15.40;11.87;;;;;;;9.15;100.00;97591.28;5072141;28;20228;-65
2022/09/30 07:38:56;;;;;;;15.67;12.30;;;;;;;9.21;100.00;97582.94;5058644;28;20225;-65
2022/09/30 07:41:27;;;;;;;16.40;12.63;;;;;;;9.34;100.00;97589.84;5060348;28;20290;-66
2022/09/30 07:43:58;;;;;;;14.80;11.67;;;;;;;9.47;100.00;97595.06;5060655;28;20555;-65
2022/09/30 07:46:28;;;;;;;16.77;11.90;;;;;;;9.51;100.00;97591.25;5071670;28;20227;-66
2022/09/30 07:49:04;;;;;;;15.73;12.47;;;;;;;9.55;100.00;97590.09;5059365;28;20223;-66
2022/09/30 07:51:33;;;;;;;14.20;11.53;;;;;;;9.63;100.00;97598.28;5074357;28;20223;-66
2022/09/30 07:54:04;;;;;;;15.97;11.40;;;;;;;9.68;100.00;97606.69;5066635;28;20256;-67
2022/09/30 07:56:38;;;;;;;16.00;12.27;;;;;;;9.79;100.00;97614.66;5070611;28;20270;-66
2022/09/30 07:59:06;;;;;;;18.00;13.53;;;;;;;9.85;100.00;97619.50;5074110;28;20548;-66
2022/09/30 08:01:37;;;;;;;18.67;13.77;;;;;;;9.95;100.00;97623.09;5072891;28;20226;-66
2022/09/30 08:04:09;;;;;;;19.20;14.20;;;;;;;10.05;100.00;97616.22;5073675;28;20236;-67
2022/09/30 08:06:41;;;;;;;22.17;13.30;;;;;;;10.17;100.00;97625.88;5077591;28;20277;-65
2022/09/30 08:09:10;;;;;;;19.30;13.73;;;;;;;10.28;100.00;97629.38;5113514;28;20626;-66
2022/09/30 08:11:40;;;;;;;19.70;13.93;;;;;;;10.30;100.00;97630.13;5112544;28;20281;-65
2022/09/30 08:14:14;;;;;;;17.33;13.57;;;;;;;10.40;100.00;97639.00;5111831;28;20221;-67
2022/09/30 08:16:45;;;;;;;19.43;12.60;;;;;;;10.41;100.00;97650.41;5113540;28;20236;-66
2022/09/30 08:19:16;;;;;;;19.40;11.87;;;;;;;10.43;100.00;97653.78;5115150;28;20298;-66
2022/09/30 08:21:46;;;;;;;16.37;12.50;;;;;;;10.44;100.00;97660.75;5115135;28;20295;-67
2022/09/30 08:24:16;;;;;;;15.33;11.67;;;;;;;10.39;100.00;97663.75;5111677;28;20633;-67
2022/09/30 08:26:44;;;;;;;16.43;11.77;;;;;;;10.39;100.00;97660.28;5101151;28;20249;-67
2022/09/30 08:29:13;;;;;;;15.57;11.37;;;;;;;10.50;100.00;97662.91;5101396;28;20539;-67
2022/09/30 08:31:40;;;;;;;14.87;11.40;;;;;;;10.57;100.00;97661.47;5101232;28;20233;-67
2022/09/30 08:34:09;;;;;;;16.80;13.00;;;;;;;10.58;100.00;97665.84;5104182;28;20222;-67
2022/09/30 08:36:36;;;;;;;13.47;11.03;;;;;;;10.59;100.00;97664.88;5101254;28;20230;-68
2022/09/30 08:39:09;;;;;;;14.10;11.33;;;;;;;10.69;100.00;97664.03;5100905;28;20258;-66
2022/09/30 08:42:15;;;;;;;15.43;12.17;;;;;;;10.65;100.00;97659.94;5099227;28;20275;-67
2022/09/30 08:44:47;;;;;;;15.97;11.77;;;;;;;10.39;100.00;97657.63;5100191;28;20238;-66
2022/09/30 08:47:38;;;;;;;14.97;12.07;;;;;;;10.08;100.00;97652.94;5100974;28;20252;-66
2022/09/30 08:50:20;;;;;;;16.33;12.90;;;;;;;9.98;100.00;97658.03;5111565;28;20230;-67
2022/09/30 08:52:53;;;;;;;17.20;13.50;;;;;;;10.00;100.00;97665.84;5114776;28;20285;-67
2022/09/30 08:55:23;;;;;;;16.63;13.37;;;;;;;9.98;100.00;97662.50;5102675;28;20254;-67
2022/09/30 08:57:54;;;;;;;18.73;14.23;;;;;;;9.93;100.00;97659.34;5102906;28;20226;-67
2022/09/30 09:00:22;;;;;;;18.33;14.53;;;;;;;9.88;100.00;97656.19;5100602;28;20310;-67
2022/09/30 09:02:54;;;;;;;17.70;14.30;;;;;;;9.90;100.00;97657.78;5108456;28;20223;-67
2022/09/30 09:05:41;;;;;;;18.00;14.30;;;;;;;9.95;100.00;97662.69;5113460;28;20313;-68
2022/09/30 09:08:20;;;;;;;20.93;16.03;;;;;;;10.05;100.00;97666.38;5110977;28;20247;-67
2022/09/30 09:10:58;;;;;;;17.07;14.43;;;;;;;10.30;100.00;97674.16;5114233;28;20222;-67
2022/09/30 09:13:47;;;;;;;20.23;15.83;;;;;;;10.37;100.00;97672.72;5114191;28;20226;-67
2022/09/30 09:16:24;;;;;;;18.57;14.60;;;;;;;10.42;100.00;97667.94;5100521;28;20281;-67
2022/09/30 09:19:01;;;;;;;18.73;14.73;;;;;;;10.44;100.00;97671.31;5100287;28;20222;-67
2022/09/30 09:21:39;;;;;;;18.90;15.27;;;;;;;10.61;100.00;97668.22;5101268;28;20282;-67
2022/09/30 09:24:14;;;;;;;17.40;14.97;;;;;;;10.59;100.00;97668.34;5100590;28;20224;-67
2022/09/30 09:26:41;;;;;;;19.53;14.83;;;;;;;10.67;100.00;97663.34;5100469;28;20279;-68
2022/09/30 09:29:22;;;;;;;20.47;15.33;;;;;;;10.68;100.00;97661.50;5098683;28;20265;-68
2022/09/30 09:31:49;;;;;;;17.27;14.23;;;;;;;10.78;100.00;97662.50;5109475;28;20316;-69
2022/09/30 09:34:16;;;;;;;18.27;14.53;;;;;;;10.91;100.00;97665.88;5111033;28;20267;-68
2022/09/30 09:36:58;;;;;;;18.97;14.33;;;;;;;11.04;100.00;97669.22;5111046;28;20313;-68
2022/09/30 09:39:52;;;;;;;15.20;12.43;;;;;;;11.21;100.00;97668.75;5110935;28;20305;-67
2022/09/30 09:42:39;;;;;;;17.30;12.43;;;;;;;11.32;100.00;97666.09;5107351;28;20642;-69
2022/09/30 09:45:17;;;;;;;15.67;11.73;;;;;;;11.47;100.00;97671.03;5099824;28;20223;-69
2022/09/30 09:47:50;;;;;;;14.47;10.47;;;;;;;11.54;100.00;97677.50;5102626;28;20257;-67
2022/09/30 09:50:24;;;;;;;10.93;9.67;;;;;;;11.62;100.00;97674.28;5105062;28;20295;-68
2022/09/30 09:53:15;;;;;;;12.33;9.60;;;;;;;11.76;100.00;97671.34;5106902;28;20268;-68
2022/09/30 09:55:43;;;;;;;9.67;8.20;;;;;;;11.92;100.00;97672.63;5102345;28;20225;-68
2022/09/30 09:58:12;;;;;;;10.13;7.77;;;;;;;12.02;100.00;97672.69;5104948;28;20303;-68
2022/09/30 10:03:27;;;;;;;8.37;7.50;;;;;;;12.23;100.00;97671.78;5101986;28;20224;-69
2022/09/30 10:06:05;;;;;;;8.93;7.90;;;;;;;12.36;100.00;97682.22;5104386;28;20509;-69
2022/09/30 10:08:33;;;;;;;11.37;8.20;;;;;;;12.44;100.00;97679.75;5107631;28;20294;-69
2022/09/30 10:11:02;;;;;;;10.83;8.60;;;;;;;12.44;98.76;97679.75;5104751;28;20265;-68
2022/09/30 10:13:32;;;;;;;9.77;8.53;;;;;;;12.41;98.82;97685.31;5103730;28;20258;-68
2022/09/30 10:16:01;;;;;;;11.80;8.20;;;;;;;12.40;100.00;97683.63;5106526;28;20355;-68
2022/09/30 10:18:32;;;;;;;11.10;9.10;;;;;;;12.53;100.00;97686.94;5107384;28;20219;-69
2022/09/30 10:21:01;;;;;;;10.23;8.43;;;;;;;12.67;100.00;97679.50;5103559;28;20329;-68
2022/09/30 10:23:30;;;;;;;9.73;8.20;;;;;;;12.79;100.00;97675.81;5103463;28;20260;-69
2022/09/30 10:26:00;;;;;;;10.23;8.90;;;;;;;12.91;100.00;97679.22;5104730;28;20268;-67
2022/09/30 10:28:30;;;;;;;10.57;7.83;;;;;;;12.97;95.83;97678.72;5103689;28;20230;-68
2022/09/30 10:31:00;;;;;;;9.47;7.40;;;;;;;12.99;94.23;97682.94;5108286;28;20647;-69
2022/09/30 10:33:31;;;;;;;9.10;7.20;;;;;;;13.05;94.11;97687.72;5107518;28;20597;-69
2022/09/30 10:36:06;;;;;;;7.73;6.93;;;;;;;13.17;93.44;97683.16;5104357;28;20262;-67
2022/09/30 10:38:34;;;;;;;7.93;6.87;;;;;;;13.26;92.66;97691.16;5107288;28;20274;-67
2022/09/30 10:41:02;;;;;;;10.50;7.80;;;;;;;13.30;89.83;97686.41;5108196;28;20245;-67
2022/09/30 10:43:35;;;;;;;9.17;7.10;;;;;;;13.29;92.70;97690.06;5105677;28;20633;-67
2022/09/30 10:46:04;;;;;;;10.20;8.20;;;;;;;13.37;91.89;97687.56;5104396;28;20257;-67
2022/09/30 10:48:34;;;;;;;8.13;6.83;;;;;;;13.43;93.11;97693.19;5103352;28;20301;-69
2022/09/30 10:51:01;;;;;;;8.87;7.60;;;;;;;13.59;93.46;97698.00;5104623;28;20664;-68
2022/09/30 10:53:32;;;;;;;9.33;7.90;;;;;;;13.68;93.92;97691.88;5105262;28;20264;-68
2022/09/30 10:56:00;;;;;;;10.60;7.70;;;;;;;13.80;93.98;97690.78;5104135;28;20262;-67
2022/09/30 10:58:40;;;;;;;7.40;6.43;;;;;;;13.84;88.66;97684.22;5115338;28;20222;-68
2022/09/30 11:01:21;;;;;;;7.53;6.47;;;;;;;13.93;87.40;97683.41;5107453;28;20321;-68
2022/09/30 11:03:57;;;;;;;7.03;5.70;;;;;;;14.01;87.65;97688.88;5105819;28;20266;-68
2022/09/30 11:06:24;;;;;;;6.33;5.23;;;;;;;14.03;81.00;97687.75;5110176;28;20589;-68
2022/09/30 11:08:57;;;;;;;7.80;5.70;;;;;;;14.09;82.64;97687.22;5112897;28;20234;-68
2022/09/30 11:11:28;;;;;;;7.13;6.13;;;;;;;14.08;83.45;97684.69;5109949;28;20222;-68
2022/09/30 11:13:59;;;;;;;7.10;5.00;;;;;;;14.07;82.65;97678.53;5112122;28;20226;-68
2022/09/30 11:16:33;;;;;;;6.67;4.97;;;;;;;14.23;85.38;97683.34;5113372;28;20251;-68
2022/09/30 11:19:07;;;;;;;5.10;4.27;;;;;;;14.30;82.75;97677.31;5110054;28;20292;-68
2022/09/30 11:21:41;;;;;;;4.03;3.60;;;;;;;14.34;79.75;97675.19;5108336;28;20293;-68
2022/09/30 11:24:22;;;;;;;5.27;3.67;;;;;;;14.44;80.89;97676.06;5113254;28;20270;-68
2022/09/30 11:26:58;;;;;;;3.50;3.20;;;;;;;14.51;78.05;97679.81;5110188;28;20223;-68
2022/09/30 11:29:49;;;;;;;3.27;2.70;;;;;;;14.62;79.22;97679.69;5109933;28;20259;-68
2022/09/30 11:32:31;;;;;;;3.10;2.47;;;;;;;14.71;75.72;97677.00;5113054;28;20270;-68
2022/09/30 11:35:09;;;;;;;2.20;2.00;;;;;;;14.72;71.77;97680.50;5109293;28;20597;-68
2022/09/30 11:37:53;;;;;;;2.60;2.20;;;;;;;14.78;71.71;97675.44;5112281;28;20311;-68
2022/09/30 11:40:43;;;;;;;3.40;2.40;;;;;;;15.01;66.46;97678.59;5112052;28;20278;-68
2022/09/30 11:43:30;;;;;;;3.83;2.60;;;;;;;14.97;63.58;97679.91;5109656;28;20259;-68
2022/09/30 11:46:12;;;;;;;4.17;2.40;;;;;;;14.87;67.58;97682.59;5112620;28;20591;-68
2022/09/30 11:48:55;;;;;;;2.50;1.93;;;;;;;14.87;68.18;97679.94;5108734;28;20223;-69
2022/09/30 11:51:31;;;;;;;3.80;2.23;;;;;;;14.91;68.63;97681.28;5112223;28;20254;-68
2022/09/30 11:54:13;;;;;;;2.47;2.27;;;;;;;14.98;63.08;97679.72;5105846;28;20220;-68
2022/09/30 11:56:49;;;;;;;1.80;1.70;;;;;;;14.91;64.64;97669.84;5108987;28;20285;-68
2022/09/30 11:59:22;;;;;;;2.47;2.10;;;;;;;15.05;69.78;97688.84;5112235;28;20259;-68